ジャカルタ の空港の天気 - METARとTAF

スカルノハッタ国際空港 ( WIII / CGK ) - インドネシア バンテン州、Cengkareng ( ジャカルタ近郊)
飛行場実況気象(Metar)
観測時間09/23 06:00 WIB (09/22 23:00 UTC)
風向・風速南東 3m/s
視程4800m
天気現象煙霧
少しの雲 雲底高度 610m
気温26℃
湿度89%
気圧1010hPa
METARWIII 222300Z 14005KT 4800 HZ FEW020 26/24 Q1010 NOSIG
過去の天気等 Google飛行場航空写真 Wunderground天気予報

過去48時間のMETAR

飛行場予報(TAF)
発表時間: 9/23 00:00 WIB (9/22 17:00 UTC)
予報対象時間: 23日1時 WIB ~ 24日7時 WIB
風向・風速南 3m/s
視程5000m
天気現象煙霧
全天の4割程度の雲 雲底高度 610m
23日9時 WIB ~ 23日11時 WIB に徐々に
風向・風速東北東 5m/s
視程9000m
天気現象運行に影響にある天気現象が終了
TAF WIII 221700Z 2218/2324 18005KT 5000 HZ SCT020
BECMG 2302/2304 06010KT 9000 NSW